createdAt,value
2023-02-23T00:00:20.968Z,58.06
2023-02-23T00:00:33.909Z,57.77
2023-02-23T00:00:47.395Z,57.91
2023-02-23T00:01:00.316Z,58.10
2023-02-23T00:01:20.445Z,58.27
2023-02-23T00:01:33.286Z,58.16
2023-02-23T00:01:46.093Z,58.21
2023-02-23T00:02:06.337Z,58.28
2023-02-23T00:02:19.193Z,58.46
2023-02-23T00:02:32.080Z,58.61
2023-02-23T00:02:44.973Z,58.58
2023-02-23T00:02:59.135Z,58.55
2023-02-23T00:03:12.161Z,58.57
2023-02-23T00:03:25.004Z,58.52
2023-02-23T00:03:37.838Z,58.60
2023-02-23T00:03:50.920Z,58.42
2023-02-23T00:04:03.817Z,58.40
2023-02-23T00:04:18.742Z,58.40
2023-02-23T00:04:31.716Z,58.20
2023-02-23T00:04:44.581Z,58.29
2023-02-23T00:04:57.860Z,58.21
2023-02-23T00:05:10.668Z,58.32
2023-02-23T00:05:23.554Z,58.37
2023-02-23T00:05:36.725Z,58.12
2023-02-23T00:05:49.536Z,58.25
2023-02-23T00:06:03.548Z,58.29
2023-02-23T00:06:17.399Z,58.02
2023-02-23T00:06:30.794Z,58.06
2023-02-23T00:06:43.671Z,58.12
2023-02-23T00:06:56.558Z,58.29
2023-02-23T00:07:10.393Z,58.23
2023-02-23T00:07:23.212Z,58.26
2023-02-23T00:07:36.780Z,58.16
2023-02-23T00:07:49.585Z,58.14
2023-02-23T00:08:02.414Z,58.19
2023-02-23T00:08:15.259Z,57.97
2023-02-23T00:08:28.301Z,58.13
2023-02-23T00:08:41.358Z,58.09
2023-02-23T00:08:54.313Z,58.16
2023-02-23T00:09:12.086Z,58.02
2023-02-23T00:09:25.007Z,58.21
2023-02-23T00:09:37.937Z,58.14
2023-02-23T00:09:50.976Z,58.27
2023-02-23T00:10:03.939Z,58.23
2023-02-23T00:10:18.805Z,58.37
2023-02-23T00:10:31.683Z,58.41
2023-02-23T00:10:44.649Z,58.08
2023-02-23T00:11:00.341Z,58.28
2023-02-23T00:11:13.207Z,58.42
2023-02-23T00:11:27.145Z,58.56
2023-02-23T00:11:39.998Z,58.19
2023-02-23T00:11:57.255Z,58.00
2023-02-23T00:12:10.266Z,58.13
2023-02-23T00:12:24.076Z,58.13
2023-02-23T00:12:36.826Z,58.05
2023-02-23T00:12:49.618Z,58.00
2023-02-23T00:13:02.429Z,58.03
2023-02-23T00:13:15.205Z,58.11
2023-02-23T00:13:28.539Z,58.23
2023-02-23T00:13:41.941Z,58.13
2023-02-23T00:13:56.753Z,58.36
2023-02-23T00:14:09.530Z,58.26
2023-02-23T00:14:27.243Z,58.36
2023-02-23T00:14:40.219Z,58.44
2023-02-23T00:14:53.042Z,58.38
2023-02-23T00:15:07.601Z,58.42
2023-02-23T00:15:20.410Z,58.37
2023-02-23T00:15:33.246Z,58.58
2023-02-23T00:15:46.050Z,58.66
2023-02-23T00:15:58.831Z,58.48
2023-02-23T00:16:15.744Z,58.79
2023-02-23T00:16:28.604Z,58.69
2023-02-23T00:16:45.349Z,58.85
2023-02-23T00:16:59.955Z,58.58
2023-02-23T00:17:15.119Z,58.59
2023-02-23T00:17:30.320Z,58.50
2023-02-23T00:17:43.213Z,58.45
2023-02-23T00:17:56.819Z,58.41
2023-02-23T00:18:09.925Z,58.41
2023-02-23T00:18:22.973Z,58.46
2023-02-23T00:18:45.157Z,58.45
2023-02-23T00:19:00.454Z,58.63
2023-02-23T00:19:14.109Z,58.62
2023-02-23T00:19:27.016Z,58.53
2023-02-23T00:19:40.111Z,58.50
2023-02-23T00:19:53.131Z,58.48
2023-02-23T00:20:11.818Z,58.45
2023-02-23T00:20:26.219Z,58.84
2023-02-23T00:20:44.474Z,58.48
2023-02-23T00:20:57.717Z,58.35
2023-02-23T00:21:17.879Z,58.36
2023-02-23T00:21:38.017Z,58.55
2023-02-23T00:21:52.714Z,58.57
2023-02-23T00:22:06.578Z,58.51
2023-02-23T00:22:19.719Z,58.57
2023-02-23T00:22:32.713Z,58.24
2023-02-23T00:22:49.003Z,58.48
2023-02-23T00:23:02.081Z,58.44
2023-02-23T00:23:15.143Z,58.47
2023-02-23T00:23:27.967Z,58.34
2023-02-23T00:23:42.621Z,58.59
2023-02-23T00:23:57.380Z,58.72
2023-02-23T00:24:11.750Z,58.55
2023-02-23T00:24:26.988Z,58.50
2023-02-23T00:24:42.372Z,58.43
2023-02-23T00:24:57.544Z,58.50
2023-02-23T00:25:11.730Z,58.55
2023-02-23T00:25:25.164Z,58.51
2023-02-23T00:25:38.873Z,58.38
2023-02-23T00:25:51.668Z,58.43
2023-02-23T00:26:04.651Z,58.60
2023-02-23T00:26:20.803Z,58.60
2023-02-23T00:26:35.248Z,58.63
2023-02-23T00:26:48.473Z,58.55
2023-02-23T00:27:06.216Z,58.53
2023-02-23T00:27:21.127Z,58.62
2023-02-23T00:27:34.218Z,58.61
2023-02-23T00:27:47.058Z,58.41
2023-02-23T00:27:59.964Z,58.38
2023-02-23T00:28:12.747Z,58.42
2023-02-23T00:28:25.539Z,58.40
2023-02-23T00:28:38.370Z,58.21
2023-02-23T00:28:51.383Z,58.26
2023-02-23T00:29:10.854Z,57.98
2023-02-23T00:29:24.899Z,58.07
2023-02-23T00:29:40.476Z,58.25
2023-02-23T00:29:53.554Z,58.22
2023-02-23T00:30:07.330Z,58.35
2023-02-23T00:30:20.281Z,58.08
2023-02-23T00:30:35.525Z,58.12
2023-02-23T00:30:48.812Z,58.12
2023-02-23T00:31:04.525Z,58.06
2023-02-23T00:31:17.967Z,57.92
2023-02-23T00:31:31.037Z,57.92
2023-02-23T00:31:47.025Z,58.08
2023-02-23T00:31:59.931Z,58.13
2023-02-23T00:32:12.847Z,58.20
2023-02-23T00:32:25.901Z,57.91
2023-02-23T00:32:38.835Z,58.17
2023-02-23T00:32:52.582Z,58.24
2023-02-23T00:33:05.400Z,57.99
2023-02-23T00:33:18.215Z,58.00
2023-02-23T00:33:31.582Z,57.77
2023-02-23T00:33:44.451Z,57.96
2023-02-23T00:33:59.152Z,57.83
2023-02-23T00:34:12.496Z,57.88
2023-02-23T00:34:25.280Z,57.86
2023-02-23T00:34:38.182Z,57.92
2023-02-23T00:34:51.766Z,57.82
2023-02-23T00:35:05.377Z,57.86
2023-02-23T00:35:18.952Z,58.05
2023-02-23T00:35:33.347Z,58.04
2023-02-23T00:35:48.471Z,58.10
2023-02-23T00:36:27.866Z,58.22
2023-02-23T00:36:42.146Z,58.15
2023-02-23T00:36:55.486Z,58.09
2023-02-23T00:37:08.740Z,57.86
2023-02-23T00:37:23.044Z,57.92
2023-02-23T00:37:36.051Z,57.88
2023-02-23T00:37:49.028Z,57.91
2023-02-23T00:38:01.831Z,57.88
2023-02-23T00:38:14.686Z,57.98
2023-02-23T00:38:27.479Z,58.00
2023-02-23T00:38:41.378Z,57.87
2023-02-23T00:38:55.121Z,58.13
2023-02-23T00:39:25.214Z,58.01
2023-02-23T00:39:38.208Z,58.15
2023-02-23T00:39:52.097Z,57.80
2023-02-23T00:40:14.620Z,58.03
2023-02-23T00:40:27.506Z,58.03
2023-02-23T00:40:41.088Z,57.98
2023-02-23T00:40:53.899Z,58.23
2023-02-23T00:41:14.298Z,58.13
2023-02-23T00:41:43.427Z,57.83
2023-02-23T00:41:56.320Z,57.71
2023-02-23T00:42:10.501Z,57.81
2023-02-23T00:42:24.594Z,57.74
2023-02-23T00:42:37.413Z,58.08
2023-02-23T00:42:52.145Z,58.16
2023-02-23T00:43:05.041Z,58.14
2023-02-23T00:43:19.883Z,57.96
2023-02-23T00:43:39.555Z,57.99
2023-02-23T00:44:08.214Z,57.98
2023-02-23T00:44:21.863Z,57.99
2023-02-23T00:44:34.928Z,58.04
2023-02-23T00:44:48.995Z,58.17
2023-02-23T00:45:08.147Z,58.07
2023-02-23T00:45:20.973Z,58.07
2023-02-23T00:45:33.965Z,58.27
2023-02-23T00:45:46.821Z,58.18
2023-02-23T00:45:59.727Z,58.40
2023-02-23T00:46:12.671Z,58.34
2023-02-23T00:46:27.471Z,58.32
2023-02-23T00:46:41.907Z,58.46
2023-02-23T00:46:54.706Z,58.41
2023-02-23T00:47:07.548Z,58.20
2023-02-23T00:47:20.647Z,58.32
2023-02-23T00:47:33.489Z,58.26
2023-02-23T00:47:48.477Z,58.14
2023-02-23T00:48:05.550Z,58.42
2023-02-23T00:48:18.626Z,58.13
2023-02-23T00:48:34.741Z,58.00
2023-02-23T00:48:48.595Z,58.12
2023-02-23T00:49:01.946Z,58.20
2023-02-23T00:49:14.867Z,58.23
2023-02-23T00:49:27.746Z,58.06
2023-02-23T00:49:40.557Z,58.13
2023-02-23T00:49:53.530Z,58.08
2023-02-23T00:50:07.663Z,58.04
2023-02-23T00:50:20.628Z,57.99
2023-02-23T00:50:34.776Z,58.12
2023-02-23T00:50:50.701Z,58.02
2023-02-23T00:51:05.388Z,58.18
2023-02-23T00:51:18.823Z,58.13
2023-02-23T00:51:32.225Z,58.04
2023-02-23T00:51:45.054Z,58.33
2023-02-23T00:51:58.226Z,58.09
2023-02-23T00:52:12.157Z,58.28
2023-02-23T00:52:25.007Z,58.08
2023-02-23T00:52:38.883Z,58.01
2023-02-23T00:52:51.714Z,58.19
2023-02-23T00:53:04.949Z,58.19
2023-02-23T00:53:17.771Z,58.22
2023-02-23T00:53:30.691Z,58.17
2023-02-23T00:53:44.219Z,58.30
2023-02-23T00:53:57.753Z,58.29
2023-02-23T00:54:12.545Z,58.13
2023-02-23T00:54:25.397Z,58.15
2023-02-23T00:54:38.264Z,58.23
2023-02-23T00:54:51.476Z,58.16
2023-02-23T00:55:04.903Z,58.11
2023-02-23T00:55:17.724Z,58.07
2023-02-23T00:55:30.561Z,58.25
2023-02-23T00:55:43.359Z,58.28
2023-02-23T00:55:56.470Z,58.24
2023-02-23T00:56:10.378Z,58.19
2023-02-23T00:56:23.360Z,58.25
2023-02-23T00:56:36.170Z,58.02
2023-02-23T00:56:49.339Z,58.00
2023-02-23T00:57:02.155Z,58.03
2023-02-23T00:57:15.006Z,58.33
2023-02-23T00:57:27.810Z,58.15
2023-02-23T00:57:40.900Z,58.37
2023-02-23T00:57:53.697Z,58.19
2023-02-23T00:58:09.626Z,58.30
2023-02-23T00:58:23.754Z,58.29
2023-02-23T00:58:36.686Z,58.56
2023-02-23T00:58:49.696Z,58.41
2023-02-23T00:59:02.500Z,58.41
2023-02-23T00:59:15.296Z,58.15
2023-02-23T00:59:29.702Z,58.22
2023-02-23T00:59:42.521Z,58.11
2023-02-23T00:59:55.313Z,58.12
2023-02-23T01:00:18.818Z,58.02
2023-02-23T01:00:32.163Z,57.94
2023-02-23T01:00:44.975Z,58.08
2023-02-23T01:00:59.249Z,58.01
2023-02-23T01:01:12.920Z,58.11
2023-02-23T01:01:25.786Z,57.91
2023-02-23T01:01:39.069Z,58.10
2023-02-23T01:01:52.580Z,58.04
2023-02-23T01:02:05.452Z,57.86
2023-02-23T01:02:18.322Z,58.00
2023-02-23T01:02:31.197Z,57.71
2023-02-23T01:02:44.079Z,57.73
2023-02-23T01:02:56.878Z,57.82
2023-02-23T01:03:09.706Z,57.61
2023-02-23T01:03:22.550Z,57.83
2023-02-23T01:03:35.544Z,57.79
2023-02-23T01:03:48.319Z,57.56
2023-02-23T01:04:01.675Z,57.62
2023-02-23T01:04:14.522Z,57.83
2023-02-23T01:04:27.334Z,57.69
2023-02-23T01:04:53.389Z,58.25
2023-02-23T01:05:06.479Z,58.07
2023-02-23T01:05:20.419Z,58.12
2023-02-23T01:05:35.295Z,58.02
2023-02-23T01:05:50.126Z,58.05
2023-02-23T01:06:05.741Z,58.31
2023-02-23T01:06:18.594Z,58.05
2023-02-23T01:06:31.408Z,58.38
2023-02-23T01:06:46.280Z,58.13
2023-02-23T01:06:59.722Z,58.21
2023-02-23T01:07:13.077Z,58.21
2023-02-23T01:07:25.969Z,58.02
2023-02-23T01:07:38.995Z,58.28
2023-02-23T01:07:51.895Z,58.08
2023-02-23T01:08:09.351Z,57.99
2023-02-23T01:08:24.869Z,58.07
2023-02-23T01:08:39.501Z,58.35
2023-02-23T01:08:56.732Z,58.04
2023-02-23T01:09:11.561Z,58.01
2023-02-23T01:09:28.413Z,57.97
2023-02-23T01:09:41.162Z,58.26
2023-02-23T01:09:53.956Z,58.17
2023-02-23T01:10:19.104Z,58.32
2023-02-23T01:10:32.034Z,58.29
2023-02-23T01:10:52.068Z,58.38
2023-02-23T01:11:24.792Z,58.42
2023-02-23T01:11:37.579Z,58.44
2023-02-23T01:11:50.464Z,58.45
2023-02-23T01:12:07.317Z,58.57
2023-02-23T01:12:20.150Z,58.11
2023-02-23T01:12:32.947Z,58.10
2023-02-23T01:12:52.043Z,58.26
2023-02-23T01:13:05.967Z,58.21
2023-02-23T01:13:20.176Z,58.27
2023-02-23T01:13:34.028Z,58.05
2023-02-23T01:13:50.075Z,58.04
2023-02-23T01:14:03.085Z,58.12
2023-02-23T01:14:15.882Z,58.30
2023-02-23T01:14:29.402Z,58.10
2023-02-23T01:14:42.582Z,57.97
2023-02-23T01:14:55.432Z,57.81
2023-02-23T01:15:08.928Z,58.16
2023-02-23T01:15:21.803Z,58.08
2023-02-23T01:15:34.734Z,57.99
2023-02-23T01:15:48.525Z,58.05
2023-02-23T01:16:03.783Z,57.95
2023-02-23T01:16:17.741Z,57.77
2023-02-23T01:16:31.949Z,57.64
2023-02-23T01:16:44.766Z,57.86
2023-02-23T01:16:57.565Z,57.97
2023-02-23T01:17:10.375Z,57.71
2023-02-23T01:17:23.135Z,58.03
2023-02-23T01:17:35.945Z,57.82
2023-02-23T01:18:02.108Z,57.71
2023-02-23T01:18:16.694Z,58.03
2023-02-23T01:18:29.495Z,58.16
2023-02-23T01:18:42.598Z,58.00
2023-02-23T01:18:56.784Z,57.99
2023-02-23T01:19:09.971Z,57.94
2023-02-23T01:19:22.880Z,57.87
2023-02-23T01:19:35.695Z,58.05
2023-02-23T01:19:48.507Z,58.03
2023-02-23T01:20:01.321Z,57.78
2023-02-23T01:20:17.887Z,57.68
2023-02-23T01:20:30.701Z,58.10
2023-02-23T01:20:43.997Z,57.92
2023-02-23T01:20:56.808Z,57.98
2023-02-23T01:21:42.068Z,57.67
2023-02-23T01:21:55.010Z,57.88
2023-02-23T01:22:07.817Z,57.75
2023-02-23T01:22:20.610Z,57.81
2023-02-23T01:22:33.416Z,57.98
2023-02-23T01:22:47.606Z,57.92
2023-02-23T01:23:03.199Z,57.91
2023-02-23T01:23:16.045Z,58.12
2023-02-23T01:23:28.915Z,58.05
2023-02-23T01:23:41.766Z,57.99
2023-02-23T01:23:55.023Z,58.03
2023-02-23T01:24:08.022Z,57.77
2023-02-23T01:24:20.847Z,58.12
2023-02-23T01:24:33.646Z,57.88
2023-02-23T01:24:46.931Z,57.99
2023-02-23T01:24:59.731Z,57.87
2023-02-23T01:25:12.518Z,57.97
2023-02-23T01:25:28.543Z,58.00
2023-02-23T01:25:42.906Z,57.84
2023-02-23T01:25:55.706Z,57.62
2023-02-23T01:26:16.138Z,57.71
2023-02-23T01:26:30.811Z,57.73
2023-02-23T01:26:44.833Z,57.69
2023-02-23T01:26:57.726Z,57.56
2023-02-23T01:27:10.542Z,57.61
2023-02-23T01:27:24.016Z,57.60
2023-02-23T01:27:36.822Z,57.63
2023-02-23T01:27:49.642Z,57.56
2023-02-23T01:28:02.907Z,57.68
2023-02-23T01:28:15.762Z,57.78
2023-02-23T01:28:28.562Z,57.58
2023-02-23T01:28:41.363Z,57.83
2023-02-23T01:28:55.831Z,57.81
2023-02-23T01:29:13.643Z,57.58
2023-02-23T01:29:26.450Z,57.76
2023-02-23T01:29:39.235Z,57.63
2023-02-23T01:29:52.076Z,57.59
2023-02-23T01:30:05.522Z,57.83
2023-02-23T01:30:18.420Z,57.71
2023-02-23T01:30:31.475Z,57.70
2023-02-23T01:30:45.057Z,57.63
2023-02-23T01:30:57.999Z,57.51
2023-02-23T01:31:10.985Z,57.45
2023-02-23T01:31:24.369Z,57.55
2023-02-23T01:31:39.543Z,57.66
2023-02-23T01:31:52.711Z,57.79
2023-02-23T01:32:05.821Z,57.77
2023-02-23T01:32:18.759Z,57.81
2023-02-23T01:32:31.650Z,57.69
2023-02-23T01:32:44.559Z,57.92
2023-02-23T01:32:57.516Z,58.02
2023-02-23T01:33:10.419Z,57.88
2023-02-23T01:33:23.334Z,57.74
2023-02-23T01:33:36.179Z,57.67
2023-02-23T01:33:52.686Z,57.79
2023-02-23T01:34:06.162Z,57.76
2023-02-23T01:34:19.567Z,57.75
2023-02-23T01:34:32.790Z,57.65
2023-02-23T01:34:45.699Z,57.38
2023-02-23T01:34:58.508Z,57.62
2023-02-23T01:35:12.613Z,57.55
2023-02-23T01:35:25.455Z,57.51
2023-02-23T01:35:38.261Z,57.58
2023-02-23T01:35:58.739Z,57.58
2023-02-23T01:36:13.004Z,57.54
2023-02-23T01:36:26.428Z,57.43
2023-02-23T01:36:40.088Z,57.37
2023-02-23T01:36:52.889Z,57.40
2023-02-23T01:37:05.741Z,57.46
2023-02-23T01:37:18.572Z,57.29
2023-02-23T01:37:35.413Z,57.44
2023-02-23T01:37:49.523Z,57.62
2023-02-23T01:38:03.689Z,57.62
2023-02-23T01:38:16.538Z,57.52
2023-02-23T01:38:29.325Z,57.25
2023-02-23T01:38:42.156Z,57.63
2023-02-23T01:38:56.599Z,57.25
2023-02-23T01:39:14.202Z,57.60
2023-02-23T01:39:28.265Z,57.53
2023-02-23T01:39:41.109Z,57.57
2023-02-23T01:39:53.935Z,57.50
2023-02-23T01:40:18.818Z,57.68
2023-02-23T01:40:31.719Z,57.57
2023-02-23T01:40:44.549Z,57.68
2023-02-23T01:40:57.778Z,57.65
2023-02-23T01:41:10.786Z,57.78
2023-02-23T01:41:24.693Z,57.68
2023-02-23T01:41:37.657Z,57.69
2023-02-23T01:41:52.545Z,57.74
2023-02-23T01:42:10.124Z,57.71
2023-02-23T01:42:22.937Z,57.84
2023-02-23T01:42:38.686Z,57.84
2023-02-23T01:42:51.507Z,57.48
2023-02-23T01:43:18.050Z,57.68
2023-02-23T01:43:30.954Z,57.53
2023-02-23T01:43:59.292Z,57.56
2023-02-23T01:44:15.225Z,57.61
2023-02-23T01:44:31.205Z,57.63
2023-02-23T01:44:43.944Z,57.62
2023-02-23T01:45:29.219Z,57.44
2023-02-23T01:45:43.439Z,57.60
2023-02-23T01:45:58.153Z,57.42
2023-02-23T01:46:11.076Z,57.60
2023-02-23T01:46:24.003Z,57.44
2023-02-23T01:46:41.122Z,57.61
2023-02-23T01:46:54.116Z,57.60
2023-02-23T01:47:07.000Z,57.63
2023-02-23T01:47:20.620Z,57.69
2023-02-23T01:47:35.265Z,57.75
2023-02-23T01:47:48.211Z,57.90
2023-02-23T01:48:03.954Z,57.69
2023-02-23T01:48:18.545Z,57.74
2023-02-23T01:48:34.616Z,57.39
2023-02-23T01:48:48.660Z,57.36
2023-02-23T01:49:01.664Z,57.56
2023-02-23T01:49:20.348Z,57.53
2023-02-23T01:49:34.653Z,57.74
2023-02-23T01:49:47.542Z,57.98
2023-02-23T01:50:02.201Z,57.54
2023-02-23T01:50:16.471Z,57.76
2023-02-23T01:50:32.207Z,57.57
2023-02-23T01:51:03.146Z,57.63
2023-02-23T01:51:19.371Z,57.59
2023-02-23T01:51:34.597Z,57.58
2023-02-23T01:51:50.257Z,57.44
2023-02-23T01:52:03.952Z,57.72
2023-02-23T01:52:16.874Z,57.69
2023-02-23T01:52:29.832Z,57.81
2023-02-23T01:52:46.059Z,58.03
2023-02-23T01:52:59.494Z,58.04
2023-02-23T01:53:12.385Z,57.76
2023-02-23T01:53:26.925Z,57.77
2023-02-23T01:53:42.126Z,57.71
2023-02-23T01:54:09.942Z,57.72
2023-02-23T01:54:25.383Z,57.84
2023-02-23T01:54:40.510Z,58.10
2023-02-23T01:54:53.584Z,58.03
2023-02-23T01:55:06.846Z,58.08
2023-02-23T01:55:24.420Z,57.88
2023-02-23T01:55:38.088Z,57.80
2023-02-23T01:55:55.158Z,57.90
2023-02-23T01:56:11.559Z,57.64
2023-02-23T01:56:26.858Z,57.76
2023-02-23T01:56:43.993Z,57.87
2023-02-23T01:57:00.190Z,57.75
2023-02-23T01:57:13.106Z,57.87
2023-02-23T01:57:27.162Z,57.83
2023-02-23T01:57:40.341Z,57.82
2023-02-23T01:57:57.034Z,57.80
2023-02-23T01:58:15.648Z,57.78
2023-02-23T01:58:28.552Z,57.71
2023-02-23T01:58:43.769Z,57.79
2023-02-23T01:58:57.854Z,57.90
2023-02-23T01:59:12.379Z,57.71
2023-02-23T01:59:30.842Z,57.64
2023-02-23T01:59:45.286Z,57.53
2023-02-23T01:59:58.282Z,57.38
2023-02-23T02:00:15.188Z,57.42
2023-02-23T02:00:28.394Z,57.56
2023-02-23T02:00:47.452Z,57.61
2023-02-23T02:01:03.432Z,57.50
2023-02-23T02:01:16.570Z,57.67
2023-02-23T02:01:32.072Z,57.71
2023-02-23T02:01:45.633Z,57.66
2023-02-23T02:01:58.698Z,57.69
2023-02-23T02:02:13.435Z,57.58
2023-02-23T02:02:33.478Z,57.80
2023-02-23T02:02:48.842Z,57.82
2023-02-23T02:03:01.748Z,57.63
2023-02-23T02:03:26.923Z,57.35
2023-02-23T02:03:48.556Z,57.71
2023-02-23T02:04:07.209Z,57.63
2023-02-23T02:04:20.868Z,57.51
2023-02-23T02:04:44.513Z,57.61
2023-02-23T02:04:57.641Z,57.33
2023-02-23T02:05:14.222Z,57.23
2023-02-23T02:05:27.161Z,57.36
2023-02-23T02:05:40.208Z,57.63
2023-02-23T02:05:53.168Z,57.75
2023-02-23T02:06:09.895Z,57.71
2023-02-23T02:06:23.960Z,57.56
2023-02-23T02:06:53.977Z,57.80
2023-02-23T02:07:07.904Z,57.70
2023-02-23T02:07:26.200Z,57.53
2023-02-23T02:07:40.005Z,57.63
2023-02-23T02:07:59.102Z,57.68
2023-02-23T02:08:12.124Z,57.88
2023-02-23T02:08:25.169Z,57.95
2023-02-23T02:08:45.310Z,57.76
2023-02-23T02:09:00.293Z,57.75
2023-02-23T02:09:18.432Z,57.65
2023-02-23T02:09:37.892Z,57.58
2023-02-23T02:10:11.153Z,57.60
2023-02-23T02:10:40.339Z,57.86
2023-02-23T02:10:56.248Z,57.54
2023-02-23T02:11:26.120Z,57.76
2023-02-23T02:11:39.431Z,57.79
2023-02-23T02:11:54.379Z,57.69
2023-02-23T02:12:11.918Z,57.52
2023-02-23T02:12:26.194Z,57.85
2023-02-23T02:12:40.453Z,57.81
2023-02-23T02:12:55.615Z,58.05
2023-02-23T02:13:09.194Z,57.90
2023-02-23T02:13:24.888Z,57.54
2023-02-23T02:13:38.241Z,57.66
2023-02-23T02:13:52.411Z,57.39
2023-02-23T02:14:16.217Z,57.56
2023-02-23T02:14:30.906Z,57.64
2023-02-23T02:14:45.747Z,57.56
2023-02-23T02:14:59.798Z,57.61
2023-02-23T02:15:17.622Z,57.58
2023-02-23T02:15:31.974Z,57.79
2023-02-23T02:15:54.580Z,57.82
2023-02-23T02:16:33.056Z,57.86
2023-02-23T02:16:48.546Z,57.82
2023-02-23T02:17:16.017Z,57.87
2023-02-23T02:18:04.071Z,57.74
2023-02-23T02:18:38.334Z,57.71
2023-02-23T02:19:09.298Z,57.79
2023-02-23T02:19:53.482Z,57.99
2023-02-23T02:20:37.638Z,57.74
2023-02-23T02:20:53.542Z,57.84
2023-02-23T02:21:29.391Z,57.64
2023-02-23T02:22:00.789Z,57.92
2023-02-23T02:22:35.107Z,57.75
2023-02-23T02:23:21.891Z,57.84
2023-02-23T02:23:55.578Z,57.76
2023-02-23T02:24:23.107Z,58.13
2023-02-23T02:25:00.832Z,58.03
2023-02-23T02:25:36.542Z,58.08
2023-02-23T02:25:58.394Z,57.96
2023-02-23T02:26:26.364Z,57.90
2023-02-23T02:27:16.600Z,57.74
2023-02-23T02:28:22.430Z,57.90
2023-02-23T02:29:57.297Z,57.73
2023-02-23T02:30:25.526Z,58.04
2023-02-23T02:31:05.586Z,58.01
2023-02-23T02:31:30.486Z,58.04
2023-02-23T02:31:50.081Z,58.00
2023-02-23T02:32:14.993Z,57.79
2023-02-23T02:52:06.249Z,56.63
2023-02-23T02:52:41.414Z,56.66
2023-02-23T02:52:55.943Z,57.41
2023-02-23T02:53:09.886Z,57.70
2023-02-23T02:53:29.526Z,57.22
2023-02-23T02:53:51.277Z,57.73
2023-02-23T02:54:17.839Z,57.71
2023-02-23T02:54:37.049Z,57.99
2023-02-23T02:54:56.515Z,57.83
2023-02-23T02:55:23.910Z,57.73
2023-02-23T02:55:38.531Z,57.62
2023-02-23T02:55:51.324Z,57.53
2023-02-23T02:56:05.630Z,57.36
2023-02-23T02:56:19.948Z,57.42
2023-02-23T02:56:40.333Z,57.42
2023-02-23T02:56:57.666Z,57.05
2023-02-23T02:57:10.824Z,57.45
2023-02-23T02:57:25.476Z,57.51
2023-02-23T02:57:38.307Z,57.42
2023-02-23T02:57:52.025Z,57.54
2023-02-23T02:58:07.898Z,57.39
2023-02-23T02:58:20.722Z,57.37
2023-02-23T02:58:33.828Z,57.44
2023-02-23T02:58:47.094Z,57.38
2023-02-23T02:59:01.493Z,57.44
2023-02-23T02:59:51.551Z,57.33
2023-02-23T03:00:23.566Z,57.35
2023-02-23T03:00:59.679Z,57.20
2023-02-23T03:01:33.051Z,57.41
2023-02-23T03:02:04.563Z,57.55
2023-02-23T03:02:39.902Z,57.47
2023-02-23T03:03:11.138Z,57.58
2023-02-23T03:03:51.774Z,57.41
2023-02-23T03:04:44.157Z,57.25
2023-02-23T03:05:15.520Z,57.34
2023-02-23T03:05:59.480Z,57.44
2023-02-23T03:06:30.951Z,57.61
2023-02-23T03:07:10.024Z,57.67
2023-02-23T03:07:59.709Z,57.47
2023-02-23T03:08:54.003Z,57.29
2023-02-23T03:09:37.220Z,57.50
2023-02-23T03:10:21.391Z,57.18
2023-02-23T03:10:54.143Z,57.44
2023-02-23T03:11:29.813Z,57.39
2023-02-23T03:12:07.339Z,57.50
2023-02-23T03:12:57.882Z,57.36
2023-02-23T03:13:41.623Z,57.40
2023-02-23T03:14:27.139Z,57.38
2023-02-23T03:15:13.364Z,57.22
2023-02-23T03:16:24.042Z,57.48
2023-02-23T03:17:13.541Z,57.76
2023-02-23T03:18:06.549Z,57.39
2023-02-23T03:19:13.716Z,57.64
2023-02-23T03:19:46.394Z,57.67
2023-02-23T03:20:22.758Z,57.65
2023-02-23T03:21:02.708Z,57.46
2023-02-23T03:21:36.546Z,57.75
2023-02-23T03:22:12.433Z,57.74
2023-02-23T03:23:17.578Z,57.54
2023-02-23T03:24:07.776Z,57.30
2023-02-23T03:24:59.680Z,57.69
2023-02-23T03:25:35.831Z,57.69
2023-02-23T03:26:13.287Z,58.08
2023-02-23T03:26:53.315Z,57.57
2023-02-23T03:27:31.026Z,57.61
2023-02-23T03:28:08.307Z,57.57
2023-02-23T03:28:49.721Z,57.58
2023-02-23T03:29:50.041Z,57.63
2023-02-23T03:30:37.609Z,57.67
2023-02-23T03:31:23.930Z,57.79
2023-02-23T03:32:20.799Z,57.92
2023-02-23T03:32:55.122Z,57.68
2023-02-23T03:33:31.084Z,57.68
2023-02-23T03:34:19.127Z,57.37
2023-02-23T03:34:57.433Z,57.52
2023-02-23T03:35:40.219Z,57.28
2023-02-23T03:36:20.633Z,57.38
2023-02-23T03:36:52.583Z,57.42
2023-02-23T03:37:31.662Z,57.37
2023-02-23T03:38:09.650Z,57.52
2023-02-23T03:38:47.107Z,57.52
2023-02-23T03:39:23.333Z,57.54
2023-02-23T03:40:02.248Z,57.60
2023-02-23T03:40:40.506Z,57.69
2023-02-23T03:41:11.885Z,57.76
2023-02-23T03:41:43.620Z,57.58
2023-02-23T03:42:15.506Z,57.84
2023-02-23T03:42:48.820Z,57.49
2023-02-23T03:43:39.177Z,57.91
2023-02-23T03:44:22.140Z,57.76
2023-02-23T03:44:56.951Z,58.17
2023-02-23T03:45:31.711Z,57.86
2023-02-23T03:46:03.611Z,57.89
2023-02-23T03:46:35.037Z,57.68
2023-02-23T03:47:06.303Z,57.73
2023-02-23T03:47:38.147Z,57.91
2023-02-23T03:48:09.929Z,57.94
2023-02-23T03:48:41.655Z,57.98
2023-02-23T03:49:13.527Z,57.66
2023-02-23T03:49:46.426Z,57.68
2023-02-23T03:50:18.760Z,57.55
2023-02-23T03:50:54.125Z,57.87
2023-02-23T03:51:26.678Z,58.09
2023-02-23T03:51:59.252Z,57.81
2023-02-23T03:52:39.160Z,57.63
2023-02-23T03:53:15.947Z,57.82
2023-02-23T03:54:02.867Z,57.79
2023-02-23T03:54:37.352Z,58.11
2023-02-23T03:55:18.830Z,58.04
2023-02-23T03:55:52.756Z,58.28
2023-02-23T03:56:24.902Z,58.23
2023-02-23T03:56:58.314Z,57.98
2023-02-23T03:57:30.227Z,58.03
2023-02-23T03:58:02.243Z,57.93
2023-02-23T03:58:36.025Z,57.81
2023-02-23T03:59:10.908Z,57.73
2023-02-23T03:59:44.682Z,57.96
2023-02-23T04:00:17.050Z,57.70
2023-02-23T04:00:53.400Z,57.63
2023-02-23T04:01:24.840Z,57.61
2023-02-23T04:01:56.308Z,57.69
2023-02-23T04:02:28.132Z,57.73
2023-02-23T04:03:00.328Z,58.06
2023-02-23T04:03:31.861Z,57.67
2023-02-23T04:04:03.676Z,57.47
2023-02-23T04:04:35.278Z,57.51
2023-02-23T04:05:06.539Z,57.61
2023-02-23T04:05:37.826Z,57.98
2023-02-23T04:06:09.161Z,57.78
2023-02-23T04:06:42.014Z,57.52
2023-02-23T04:07:14.851Z,57.64
2023-02-23T04:07:46.412Z,57.69
2023-02-23T04:08:17.748Z,57.82
2023-02-23T04:08:52.468Z,57.64
2023-02-23T04:09:24.969Z,57.57
2023-02-23T04:09:56.490Z,57.93
2023-02-23T04:10:28.383Z,57.42
2023-02-23T04:11:05.505Z,57.56
2023-02-23T04:12:04.700Z,57.29
2023-02-23T04:12:51.738Z,57.30
2023-02-23T04:13:16.903Z,57.80
2023-02-23T04:13:29.688Z,57.72
2023-02-23T04:13:42.469Z,57.77
2023-02-23T04:13:55.629Z,57.66
2023-02-23T04:14:10.798Z,57.50
2023-02-23T04:14:29.742Z,57.63
2023-02-23T04:14:45.944Z,57.45
2023-02-23T04:15:20.577Z,57.29
2023-02-23T04:15:34.787Z,57.29
2023-02-23T04:15:59.773Z,57.64
2023-02-23T04:16:12.550Z,57.65
2023-02-23T04:16:25.388Z,57.70
2023-02-23T04:16:38.213Z,57.49
2023-02-23T04:16:51.081Z,57.62
2023-02-23T04:17:14.996Z,57.66
2023-02-23T04:17:28.849Z,57.60
2023-02-23T04:17:41.648Z,57.67
2023-02-23T04:17:54.592Z,58.04
2023-02-23T04:18:08.477Z,57.84
2023-02-23T04:18:27.952Z,57.85
2023-02-23T04:18:40.782Z,57.75
2023-02-23T04:18:53.581Z,57.62
2023-02-23T04:19:06.378Z,57.58
2023-02-23T04:19:19.183Z,57.53
2023-02-23T04:19:31.980Z,57.67
2023-02-23T04:19:51.928Z,57.67
2023-02-23T04:20:07.049Z,57.47
2023-02-23T04:20:19.929Z,57.64
2023-02-23T04:20:32.796Z,57.72
2023-02-23T04:20:45.701Z,57.54
2023-02-23T04:20:58.662Z,57.33
2023-02-23T04:21:11.560Z,57.56
2023-02-23T04:21:24.408Z,57.54
2023-02-23T04:21:37.247Z,57.64
2023-02-23T04:21:50.099Z,57.73
2023-02-23T04:22:02.915Z,57.56
2023-02-23T04:22:15.717Z,57.72
2023-02-23T04:22:28.568Z,57.37
2023-02-23T04:22:41.406Z,57.43
2023-02-23T04:22:54.232Z,57.43
2023-02-23T04:23:07.074Z,57.66
2023-02-23T04:23:19.912Z,57.42
2023-02-23T04:23:32.801Z,57.16
2023-02-23T04:23:45.652Z,57.46
2023-02-23T04:23:58.434Z,57.52
2023-02-23T04:24:11.268Z,57.40
2023-02-23T04:24:24.106Z,57.33
2023-02-23T04:24:37.507Z,57.58
2023-02-23T04:24:50.870Z,57.53
2023-02-23T04:25:23.022Z,57.34
2023-02-23T04:25:35.832Z,57.53
2023-02-23T04:25:49.633Z,57.37
2023-02-23T04:26:02.439Z,57.10